M I D A S
Marine Information and Data Acquisition System
Tripno 1074 of the Zeeleeuw from 2006-04-21 07:07:59 to 2006-04-21 08:28:20
Back to CruiseResearch ActivitiesStationsMapUnderway DataData graphs

EquipmentUnitsComment
TimeDGPSUTC
LatitudeDGPSDM.mWGS84
LongitudeDGPSDM.mWGS84
HeadingGyrodeg 
SOGDGPSknotsSpeed over ground
COGDGPSdegCourse over ground
DepthEcho soundermeters200 kHz
Missing or incorrect values are displayed as -999
Navigation data collected by the RV Zeeleeuw from 2006-04-21 07:01:57 to 2006-04-21 10:24:19
Time Latitude Longitude Heading SOG COG Depth
2006-04-21 07:03:03 51°13.608 2°56.058 111.8 2.3 291 -999
2006-04-21 07:04:03 51°13.623 2°55.995 111.8 2.6 290 -999
2006-04-21 07:05:03 51°13.64 2°55.931 117 2.6 293 -999
2006-04-21 07:06:03 51°13.661 2°55.867 124.5 2.8 300 4.7
2006-04-21 07:07:02 51°13.688 2°55.794 125.1 2.7 302 5.6
2006-04-21 07:08:02 51°13.695 2°55.778 89.6 1.3 273 11.7
2006-04-21 07:09:03 51°13.696 2°55.756 56.5 0.7 38 -999
2006-04-21 07:10:03 51°13.702 2°55.755 16 2.4 4 4.8
2006-04-21 07:11:01 51°13.751 2°55.716 329.9 4.9 327 11.6
2006-04-21 07:12:03 51°13.863 2°55.613 338 8.7 335 -999
2006-04-21 07:13:02 51°13.987 2°55.518 339.4 8.3 334 11.6
2006-04-21 07:14:03 51°14.114 2°55.426 338.2 8.2 334 -999
2006-04-21 07:15:02 51°14.227 2°55.311 324.4 8.3 320 11.4
2006-04-21 07:16:03 51°14.321 2°55.146 315 8.3 310 -999
2006-04-21 07:17:01 51°14.397 2°54.953 299 10 295 11.5
2006-04-21 07:18:02 51°14.435 2°54.678 278.5 10.9 277 11.7
2006-04-21 07:19:03 51°14.415 2°54.392 262.1 10.8 261 11.2
2006-04-21 07:20:02 51°14.343 2°54.158 235.8 8.8 233 10.8
2006-04-21 07:21:02 51°14.278 2°53.997 243 6.1 242 10.8
2006-04-21 07:22:02 51°14.24 2°53.871 247.8 4.9 248 10.8
2006-04-21 07:23:03 51°14.213 2°53.757 247.1 4.4 245 10.9
2006-04-21 07:24:02 51°14.176 2°53.663 236.5 4.2 233 10.9
2006-04-21 07:25:01 51°14.137 2°53.573 239.4 4.2 236 11
2006-04-21 07:26:02 51°14.101 2°53.475 243.2 4.3 241 11.1
2006-04-21 07:27:03 51°14.072 2°53.37 249.7 4.3 247 11.1
2006-04-21 07:28:03 51°14.037 2°53.273 237.1 4.2 233 11.2
2006-04-21 07:29:02 51°13.995 2°53.188 234.1 4.2 230 11.2
2006-04-21 07:30:02 51°13.953 2°53.1 239.2 4.2 237 11.2
2006-04-21 07:31:02 51°13.916 2°53.004 239.9 4.3 238 11.3
2006-04-21 07:32:01 51°13.879 2°52.911 243.5 4.2 241 11.3
2006-04-21 07:33:01 51°13.85 2°52.808 251.4 4.3 248 11.5
2006-04-21 07:34:02 51°13.816 2°52.706 240 4.2 236 11.5
2006-04-21 07:35:03 51°13.773 2°52.615 234.4 4.2 228 11.5
2006-04-21 07:36:02 51°13.729 2°52.53 235.7 4.3 231 11.4
2006-04-21 07:37:02 51°13.688 2°52.438 240.9 4.2 239 11.4
2006-04-21 07:38:01 51°13.63 2°52.417 167.5 4 150 11.3
2006-04-21 07:39:02 51°13.611 2°52.518 88.1 4 76 11.2
2006-04-21 07:40:02 51°13.646 2°52.608 60.4 4.2 53 11.1
2006-04-21 07:41:02 51°13.69 2°52.7 58.2 4.5 51 11
2006-04-21 07:42:03 51°13.738 2°52.799 59.5 4.9 53 11.1
2006-04-21 07:43:03 51°13.786 2°52.903 59.8 4.9 53 11
2006-04-21 07:44:03 51°13.837 2°53.01 60.9 5 53 11
2006-04-21 07:45:01 51°13.884 2°53.117 62.6 5 56 10.9
2006-04-21 07:46:02 51°13.933 2°53.228 61 5 53 10.8
2006-04-21 07:47:01 51°13.983 2°53.334 59.8 5 51 10.7
2006-04-21 07:48:03 51°14.036 2°53.443 58.8 5 52 10.7
2006-04-21 07:49:03 51°14.085 2°53.55 61 5 55 10.6
2006-04-21 07:50:02 51°14.135 2°53.652 56.4 5 50 10.5
2006-04-21 07:51:03 51°14.183 2°53.755 60.4 4.5 56 10.5
2006-04-21 07:52:02 51°14.223 2°53.838 56.1 3.7 52 10.5
2006-04-21 07:53:02 51°14.261 2°53.907 54.4 3.3 48 10.5
2006-04-21 07:54:03 51°14.298 2°53.966 42.5 2.9 38 10.6
2006-04-21 07:55:02 51°14.337 2°53.999 24.1 2.6 21 10.6
2006-04-21 07:56:03 51°14.374 2°54.021 17.8 2.2 19 10.7
2006-04-21 07:57:02 51°14.406 2°54.035 10 2.4 8 10.7
2006-04-21 07:58:01 51°14.448 2°53.977 284.9 4.1 281 10.8
2006-04-21 07:59:02 51°14.43 2°53.888 237.3 3.5 237 10.9
2006-04-21 08:00:03 51°14.389 2°53.812 227.9 3.9 226 10.9
2006-04-21 08:01:02 51°14.342 2°53.74 226.1 4.1 226 10.8
2006-04-21 08:02:03 51°14.3 2°53.652 241.9 4.1 240 10.8
2006-04-21 08:03:02 51°14.272 2°53.553 250.8 4.2 251 10.8
2006-04-21 08:04:03 51°14.248 2°53.448 247.3 4.1 246 10.9
2006-04-21 08:05:02 51°14.212 2°53.36 235.8 4.1 233 10.9
2006-04-21 08:06:03 51°14.176 2°53.269 239 3.6 231 11
2006-04-21 08:07:03 51°14.13 2°53.246 178.6 2.8 169 11
2006-04-21 08:08:02 51°14.1 2°53.299 119.1 3 106 10.9
2006-04-21 08:09:01 51°14.11 2°53.379 67.6 3.6 63 10.7
2006-04-21 08:10:02 51°14.148 2°53.476 60.5 5 58 10.6
2006-04-21 08:11:03 51°14.202 2°53.614 64.5 6.2 61 10.5
2006-04-21 08:12:01 51°14.249 2°53.748 66 5.5 62 10.5
2006-04-21 08:13:02 51°14.287 2°53.866 68.2 4.5 63 10.4
2006-04-21 08:14:03 51°14.323 2°53.983 67.4 5.3 63 10.4
2006-04-21 08:15:03 51°14.364 2°54.118 69.9 6 67 10.3
2006-04-21 08:16:03 51°14.415 2°54.279 66.2 6.8 63 10.4
2006-04-21 08:17:03 51°14.456 2°54.428 77.7 5.3 74 11.5
2006-04-21 08:18:03 51°14.465 2°54.544 95.9 3.9 89 11.8
2006-04-21 08:19:02 51°14.46 2°54.652 101.2 4.6 94 10.9
2006-04-21 08:20:01 51°14.439 2°54.773 112.2 4.7 109 11.2
2006-04-21 08:21:03 51°14.404 2°54.908 116 5.6 113 11
2006-04-21 08:22:01 51°14.365 2°55.036 120 5.4 118 10.8
2006-04-21 08:23:03 51°14.327 2°55.144 123.3 3.9 121 10.8
2006-04-21 08:24:03 51°14.298 2°55.215 129.2 2.8 127 10.8
2006-04-21 08:25:03 51°14.271 2°55.271 134.3 2.7 132 10.7
2006-04-21 08:26:01 51°14.232 2°55.331 142.1 3.8 140 10.7
2006-04-21 08:27:03 51°14.149 2°55.394 162.9 5.7 161 10.7
2006-04-21 08:28:03 51°14.07 2°55.44 163.2 4.5 161 -999
2006-04-21 08:29:01 51°14.016 2°55.455 179.5 2.4 175 8.6
2006-04-21 08:30:03 51°13.996 2°55.459 180.5 0.4 168 7.9
2006-04-21 08:31:03 51°13.995 2°55.459 182.1 0.1 290 -999
2006-04-21 08:32:03 51°13.996 2°55.457 169.8 0.2 353 7.6
2006-04-21 08:33:03 51°13.997 2°55.457 170.1 -999 53 -999
2006-04-21 08:34:03 51°13.997 2°55.457 171.7 0.1 91 -999
2006-04-21 08:35:03 51°13.997 2°55.456 169 0.2 349 7.6
2006-04-21 08:36:03 51°13.997 2°55.456 169.5 -999 48 7.6
2006-04-21 08:37:03 51°13.998 2°55.456 169.5 0.1 270 -999
2006-04-21 08:38:03 51°13.998 2°55.456 169.6 -999 217 -999
2006-04-21 08:39:03 51°13.998 2°55.456 169.5 -999 261 -999
2006-04-21 08:40:03 51°13.998 2°55.455 169.5 -999 307 -999
2006-04-21 08:41:03 51°13.998 2°55.456 169.6 -999 147 7.1
2006-04-21 08:42:03 51°13.998 2°55.456 169.3 -999 107 -999
2006-04-21 08:43:03 51°13.998 2°55.456 169.5 -999 71 -999
2006-04-21 08:44:03 51°13.998 2°55.456 169.8 -999 52 -999
2006-04-21 08:45:03 51°13.998 2°55.456 169.9 0.1 107 -999
2006-04-21 08:46:03 51°13.998 2°55.456 169.8 -999 200 -999
2006-04-21 08:47:03 51°13.998 2°55.457 170 -999 41 -999
2006-04-21 08:48:03 51°13.998 2°55.456 169.2 -999 176 -999
2006-04-21 08:49:03 51°13.998 2°55.456 169.2 -999 174 -999
2006-04-21 08:50:03 51°13.998 2°55.456 169.1 -999 245 -999
2006-04-21 08:51:03 51°13.999 2°55.456 169.1 -999 290 -999
2006-04-21 08:52:03 51°13.999 2°55.456 169.2 -999 216 -999
2006-04-21 08:53:02 51°13.998 2°55.456 169.7 0.1 61 7.1
2006-04-21 08:54:03 51°13.998 2°55.456 169.4 -999 97 -999
2006-04-21 08:55:03 51°13.998 2°55.456 169.3 0.1 142 -999
2006-04-21 08:56:03 51°13.998 2°55.456 169.1 -999 273 7.1
2006-04-21 08:57:03 51°13.998 2°55.456 169.5 -999 23 -999
2006-04-21 08:58:03 51°13.998 2°55.456 169.3 -999 344 -999
2006-04-21 08:59:03 51°13.997 2°55.456 169 -999 101 -999
2006-04-21 09:00:03 51°13.998 2°55.456 168.9 -999 21 -999
2006-04-21 09:01:03 51°13.998 2°55.456 169 -999 1 -999
2006-04-21 09:02:03 51°13.999 2°55.456 168.9 -999 117 -999
2006-04-21 09:03:03 51°13.998 2°55.456 169.5 -999 268 7.1
2006-04-21 09:04:03 51°13.999 2°55.456 169.3 -999 258 -999
2006-04-21 09:05:03 51°13.998 2°55.456 169.4 -999 232 7.2
2006-04-21 09:06:03 51°13.998 2°55.456 169.1 0.1 263 -999
2006-04-21 09:07:02 51°13.998 2°55.457 169 -999 5 6.9
2006-04-21 09:08:03 51°13.998 2°55.456 169.3 -999 150 -999
2006-04-21 09:09:03 51°13.998 2°55.456 169.5 -999 241 -999
2006-04-21 09:10:03 51°13.998 2°55.456 169.1 -999 1 6.8
2006-04-21 09:11:03 51°13.998 2°55.456 169.4 0.1 168 7
2006-04-21 09:12:03 51°13.999 2°55.456 169.5 -999 352 -999
2006-04-21 09:13:03 51°13.999 2°55.456 169.8 0.1 174 -999
2006-04-21 09:14:03 51°13.999 2°55.456 169.3 -999 14 -999
2006-04-21 09:15:03 51°13.998 2°55.456 169.2 -999 299 7.1
2006-04-21 09:16:03 51°13.999 2°55.456 169.4 0.1 110 -999
2006-04-21 09:17:03 51°13.998 2°55.457 170.2 -999 329 -999
2006-04-21 09:18:03 51°13.997 2°55.457 170.1 -999 322 -999
2006-04-21 09:19:03 51°13.998 2°55.457 169.2 -999 170 -999
2006-04-21 09:20:03 51°13.997 2°55.457 169.8 0.1 24 7
2006-04-21 09:21:03 51°13.998 2°55.457 169.3 0.1 129 -999
2006-04-21 09:22:03 51°13.998 2°55.457 169.8 -999 346 -999
2006-04-21 09:23:03 51°13.998 2°55.457 170.3 -999 184 -999
2006-04-21 09:24:03 51°13.998 2°55.457 169.7 0.1 358 -999
2006-04-21 09:25:03 51°13.998 2°55.456 169.5 0.1 165 -999
2006-04-21 09:26:03 51°13.998 2°55.457 169.8 -999 55 7
2006-04-21 09:27:03 51°13.998 2°55.457 169.8 0.1 56 -999
2006-04-21 09:28:03 51°13.999 2°55.456 169.1 -999 119 -999
2006-04-21 09:29:03 51°13.999 2°55.457 169.3 -999 167 -999
2006-04-21 09:30:02 51°13.999 2°55.456 170.7 -999 329 6.7
2006-04-21 09:31:03 51°13.999 2°55.457 171.2 -999 58 -999
2006-04-21 09:32:03 51°13.999 2°55.456 171.2 0.1 149 -999
2006-04-21 09:33:03 51°13.999 2°55.456 171.2 -999 115 -999
2006-04-21 09:34:03 51°13.999 2°55.456 171 -999 199 -999
2006-04-21 09:35:03 51°13.998 2°55.456 170.9 -999 331 -999
2006-04-21 09:36:03 51°13.998 2°55.456 171 -999 163 -999
2006-04-21 09:37:03 51°13.998 2°55.456 170.9 -999 287 -999
2006-04-21 09:38:03 51°13.999 2°55.456 170.9 -999 262 -999
2006-04-21 09:39:03 51°13.999 2°55.456 170.8 -999 288 -999
2006-04-21 09:40:03 51°13.998 2°55.456 170.9 -999 253 -999
2006-04-21 09:41:03 51°13.998 2°55.457 170.9 -999 253 -999
2006-04-21 09:42:03 51°13.998 2°55.457 170.9 -999 42 6.7
2006-04-21 09:43:03 51°13.998 2°55.457 170.9 -999 235 -999
2006-04-21 09:44:03 51°13.998 2°55.457 170.9 -999 52 -999
2006-04-21 09:45:03 51°13.997 2°55.457 170.9 -999 110 -999
2006-04-21 09:46:03 51°13.998 2°55.457 170.9 -999 165 -999
2006-04-21 09:47:03 51°13.998 2°55.457 171 -999 167 -999
2006-04-21 09:48:03 51°13.998 2°55.457 171 -999 61 -999
2006-04-21 09:49:03 51°13.998 2°55.457 170.9 -999 53 -999
2006-04-21 09:50:03 51°13.998 2°55.457 170.9 -999 141 -999
2006-04-21 09:51:03 51°13.998 2°55.457 170.9 -999 284 -999
2006-04-21 09:52:03 51°13.998 2°55.458 171 -999 248 6.7
2006-04-21 09:53:03 51°13.998 2°55.457 171.1 -999 137 6.4
2006-04-21 09:54:03 51°13.998 2°55.457 171.1 -999 82 -999
2006-04-21 09:55:03 51°13.998 2°55.457 171.1 -999 72 -999
2006-04-21 09:56:03 51°13.998 2°55.457 171.1 -999 97 6.7
2006-04-21 09:57:03 51°13.998 2°55.457 170.9 -999 176 -999
2006-04-21 09:58:03 51°13.998 2°55.457 171.2 -999 156 -999
2006-04-21 09:59:03 51°13.998 2°55.456 171.2 -999 179 -999
2006-04-21 10:00:03 51°13.998 2°55.456 170.7 -999 149 -999
2006-04-21 10:01:03 51°13.998 2°55.456 170.9 -999 17 6.4
2006-04-21 10:02:03 51°13.998 2°55.455 170.9 -999 193 -999
2006-04-21 10:03:03 51°13.998 2°55.455 170.8 -999 208 -999
2006-04-21 10:04:03 51°13.998 2°55.455 171.1 -999 96 6.5
2006-04-21 10:05:03 51°13.998 2°55.455 170.9 -999 233 -999
2006-04-21 10:06:03 51°13.998 2°55.455 170.9 -999 225 -999
2006-04-21 10:07:03 51°13.998 2°55.455 170.8 -999 110 -999
2006-04-21 10:08:03 51°13.998 2°55.456 170.7 -999 13 -999
2006-04-21 10:09:03 51°13.998 2°55.456 170.6 -999 293 -999
2006-04-21 10:10:03 51°13.998 2°55.456 170.6 -999 55 6.2
2006-04-21 10:11:03 51°13.997 2°55.456 169.8 0.2 137 6.2
2006-04-21 10:12:03 51°13.997 2°55.458 176.9 0.1 105 6.6
2006-04-21 10:13:03 51°14.004 2°55.461 188.2 1.3 2 7.5
2006-04-21 10:14:03 51°14.024 2°55.463 172.4 1.6 169 -999
2006-04-21 10:15:03 51°13.977 2°55.499 155.6 4.2 151 9.6
2006-04-21 10:16:03 51°13.903 2°55.56 157.6 5.5 155 -999
2006-04-21 10:17:03 51°13.819 2°55.631 153.9 5.8 150 9.8
2006-04-21 10:18:03 51°13.743 2°55.726 140 5.9 136 9.7
2006-04-21 10:19:03 51°13.682 2°55.84 130.4 5.1 127 8.9
2006-04-21 10:20:03 51°13.643 2°55.933 126.7 3.7 123 8.6
2006-04-21 10:21:03 51°13.62 2°56.007 113.4 2.6 110 8.6
2006-04-21 10:22:03 51°13.611 2°56.062 102.1 1.8 100 7.9
2006-04-21 10:23:02 51°13.606 2°56.087 117.8 0.8 125 5.4
2006-04-21 10:24:02 51°13.602 2°56.095 124.6 0.3 139 5.1